sensor_id;sensor_type;location;lat;lon;timestamp;pressure;altitude;pressure_sealevel;temperature;humidity
5753;BME280;2901;42.140;24.760;2023-06-10T00:01:38;98890.16;;;19.41;100.00
5753;BME280;2901;42.140;24.760;2023-06-10T00:04:04;98893.81;;;19.37;100.00
5753;BME280;2901;42.140;24.760;2023-06-10T00:06:30;98890.75;;;19.29;100.00
5753;BME280;2901;42.140;24.760;2023-06-10T00:09:04;98899.56;;;19.28;100.00
5753;BME280;2901;42.140;24.760;2023-06-10T00:11:33;98902.50;;;19.22;100.00
5753;BME280;2901;42.140;24.760;2023-06-10T00:13:59;98898.78;;;19.26;100.00
5753;BME280;2901;42.140;24.760;2023-06-10T00:16:24;98892.59;;;19.27;100.00
5753;BME280;2901;42.140;24.760;2023-06-10T00:18:50;98889.00;;;19.30;100.00
5753;BME280;2901;42.140;24.760;2023-06-10T00:21:16;98890.34;;;19.37;100.00
5753;BME280;2901;42.140;24.760;2023-06-10T00:23:42;98892.97;;;19.37;100.00
5753;BME280;2901;42.140;24.760;2023-06-10T00:26:08;98889.38;;;19.39;100.00
5753;BME280;2901;42.140;24.760;2023-06-10T00:28:34;98889.91;;;19.46;100.00
5753;BME280;2901;42.140;24.760;2023-06-10T00:30:59;98884.94;;;19.40;100.00
5753;BME280;2901;42.140;24.760;2023-06-10T00:33:25;98887.66;;;19.38;100.00
5753;BME280;2901;42.140;24.760;2023-06-10T00:35:50;98896.06;;;19.28;100.00
5753;BME280;2901;42.140;24.760;2023-06-10T00:38:16;98896.03;;;19.12;100.00
5753;BME280;2901;42.140;24.760;2023-06-10T00:40:41;98888.31;;;19.09;100.00
5753;BME280;2901;42.140;24.760;2023-06-10T00:43:07;98877.16;;;19.04;100.00
5753;BME280;2901;42.140;24.760;2023-06-10T00:45:32;98879.09;;;19.00;100.00
5753;BME280;2901;42.140;24.760;2023-06-10T00:47:59;98882.72;;;18.98;100.00
5753;BME280;2901;42.140;24.760;2023-06-10T00:50:25;98884.44;;;18.99;100.00
5753;BME280;2901;42.140;24.760;2023-06-10T00:52:51;98892.91;;;19.04;100.00
5753;BME280;2901;42.140;24.760;2023-06-10T00:55:17;98889.69;;;18.99;100.00
5753;BME280;2901;42.140;24.760;2023-06-10T00:57:44;98887.81;;;19.01;100.00
5753;BME280;2901;42.140;24.760;2023-06-10T01:00:11;98878.19;;;19.01;100.00
5753;BME280;2901;42.140;24.760;2023-06-10T01:02:37;98880.03;;;18.99;100.00
5753;BME280;2901;42.140;24.760;2023-06-10T01:05:03;98878.03;;;19.04;100.00
5753;BME280;2901;42.140;24.760;2023-06-10T01:07:36;98879.72;;;19.05;100.00
5753;BME280;2901;42.140;24.760;2023-06-10T01:10:25;98890.94;;;19.09;100.00
5753;BME280;2901;42.140;24.760;2023-06-10T01:12:59;98894.31;;;19.11;100.00
5753;BME280;2901;42.140;24.760;2023-06-10T01:15:29;98899.25;;;19.17;100.00
5753;BME280;2901;42.140;24.760;2023-06-10T01:17:56;98908.88;;;19.16;100.00
5753;BME280;2901;42.140;24.760;2023-06-10T01:20:23;98906.03;;;19.21;100.00
5753;BME280;2901;42.140;24.760;2023-06-10T01:22:49;98889.28;;;19.24;100.00
5753;BME280;2901;42.140;24.760;2023-06-10T01:25:16;98895.38;;;19.24;100.00
5753;BME280;2901;42.140;24.760;2023-06-10T01:27:44;98895.84;;;19.15;100.00
5753;BME280;2901;42.140;24.760;2023-06-10T01:30:14;98893.28;;;19.13;100.00
5753;BME280;2901;42.140;24.760;2023-06-10T01:32:45;98903.78;;;19.13;100.00
5753;BME280;2901;42.140;24.760;2023-06-10T01:35:11;98893.72;;;19.06;100.00
5753;BME280;2901;42.140;24.760;2023-06-10T01:37:43;98896.50;;;19.03;100.00
5753;BME280;2901;42.140;24.760;2023-06-10T01:40:11;98890.00;;;18.93;100.00
5753;BME280;2901;42.140;24.760;2023-06-10T01:42:37;98893.38;;;18.95;100.00
5753;BME280;2901;42.140;24.760;2023-06-10T01:45:03;98898.84;;;18.90;100.00
5753;BME280;2901;42.140;24.760;2023-06-10T01:47:28;98890.44;;;18.84;100.00
5753;BME280;2901;42.140;24.760;2023-06-10T01:49:54;98886.91;;;18.85;100.00
5753;BME280;2901;42.140;24.760;2023-06-10T01:52:19;98885.13;;;18.85;100.00
5753;BME280;2901;42.140;24.760;2023-06-10T01:54:45;98888.97;;;18.78;100.00
5753;BME280;2901;42.140;24.760;2023-06-10T01:57:10;98897.00;;;18.75;100.00
5753;BME280;2901;42.140;24.760;2023-06-10T01:59:36;98901.47;;;18.73;100.00
5753;BME280;2901;42.140;24.760;2023-06-10T02:02:03;98900.84;;;18.68;100.00
5753;BME280;2901;42.140;24.760;2023-06-10T02:04:28;98900.69;;;18.71;100.00
5753;BME280;2901;42.140;24.760;2023-06-10T02:06:54;98899.72;;;18.74;100.00
5753;BME280;2901;42.140;24.760;2023-06-10T02:09:21;98905.63;;;18.77;100.00
5753;BME280;2901;42.140;24.760;2023-06-10T02:11:48;98906.47;;;18.78;100.00
5753;BME280;2901;42.140;24.760;2023-06-10T02:14:13;98905.25;;;18.85;100.00
5753;BME280;2901;42.140;24.760;2023-06-10T02:16:38;98904.88;;;18.92;100.00
5753;BME280;2901;42.140;24.760;2023-06-10T02:19:04;98905.19;;;19.03;100.00
5753;BME280;2901;42.140;24.760;2023-06-10T02:21:31;98901.31;;;19.10;100.00
5753;BME280;2901;42.140;24.760;2023-06-10T02:23:57;98907.13;;;19.17;100.00
5753;BME280;2901;42.140;24.760;2023-06-10T02:26:22;98900.56;;;19.26;100.00
5753;BME280;2901;42.140;24.760;2023-06-10T02:28:48;98904.22;;;19.23;100.00
5753;BME280;2901;42.140;24.760;2023-06-10T02:31:13;98903.25;;;19.24;100.00
5753;BME280;2901;42.140;24.760;2023-06-10T02:33:39;98900.63;;;19.24;100.00
5753;BME280;2901;42.140;24.760;2023-06-10T02:36:06;98900.41;;;19.29;100.00
5753;BME280;2901;42.140;24.760;2023-06-10T02:38:31;98910.44;;;19.38;100.00
5753;BME280;2901;42.140;24.760;2023-06-10T02:40:56;98908.53;;;19.41;100.00
5753;BME280;2901;42.140;24.760;2023-06-10T02:43:22;98909.00;;;19.49;100.00
5753;BME280;2901;42.140;24.760;2023-06-10T02:45:47;98915.69;;;19.55;100.00
5753;BME280;2901;42.140;24.760;2023-06-10T02:48:12;98911.13;;;19.58;100.00
5753;BME280;2901;42.140;24.760;2023-06-10T02:50:38;98902.19;;;19.62;100.00
5753;BME280;2901;42.140;24.760;2023-06-10T02:53:05;98901.06;;;19.66;100.00
5753;BME280;2901;42.140;24.760;2023-06-10T02:55:30;98914.19;;;19.66;100.00
5753;BME280;2901;42.140;24.760;2023-06-10T02:57:57;98910.66;;;19.67;100.00
5753;BME280;2901;42.140;24.760;2023-06-10T03:00:23;98914.34;;;19.63;100.00
5753;BME280;2901;42.140;24.760;2023-06-10T03:02:48;98918.75;;;19.63;100.00
5753;BME280;2901;42.140;24.760;2023-06-10T03:05:14;98906.97;;;19.54;100.00
5753;BME280;2901;42.140;24.760;2023-06-10T03:07:40;98912.00;;;19.59;100.00
5753;BME280;2901;42.140;24.760;2023-06-10T03:10:06;98923.47;;;19.56;100.00
5753;BME280;2901;42.140;24.760;2023-06-10T03:12:32;98922.72;;;19.54;100.00
5753;BME280;2901;42.140;24.760;2023-06-10T03:14:57;98924.50;;;19.54;100.00
5753;BME280;2901;42.140;24.760;2023-06-10T03:17:23;98932.22;;;19.57;100.00
5753;BME280;2901;42.140;24.760;2023-06-10T03:19:48;98933.75;;;19.61;100.00
5753;BME280;2901;42.140;24.760;2023-06-10T03:22:14;98926.34;;;19.69;100.00
5753;BME280;2901;42.140;24.760;2023-06-10T03:24:40;98928.13;;;19.68;100.00
5753;BME280;2901;42.140;24.760;2023-06-10T03:27:09;98929.34;;;19.79;100.00
5753;BME280;2901;42.140;24.760;2023-06-10T03:29:36;98929.34;;;19.79;100.00
5753;BME280;2901;42.140;24.760;2023-06-10T03:32:02;98920.50;;;19.80;100.00
5753;BME280;2901;42.140;24.760;2023-06-10T03:34:27;98926.78;;;19.77;100.00
5753;BME280;2901;42.140;24.760;2023-06-10T03:36:53;98928.38;;;19.80;100.00
5753;BME280;2901;42.140;24.760;2023-06-10T03:39:18;98927.13;;;19.87;100.00
5753;BME280;2901;42.140;24.760;2023-06-10T03:41:44;98921.53;;;19.93;100.00
5753;BME280;2901;42.140;24.760;2023-06-10T03:44:09;98922.91;;;20.00;100.00
5753;BME280;2901;42.140;24.760;2023-06-10T03:46:34;98930.28;;;20.09;100.00
5753;BME280;2901;42.140;24.760;2023-06-10T03:49:00;98928.88;;;20.19;100.00
5753;BME280;2901;42.140;24.760;2023-06-10T03:51:26;98934.59;;;20.27;100.00
5753;BME280;2901;42.140;24.760;2023-06-10T03:53:52;98933.84;;;20.41;100.00
5753;BME280;2901;42.140;24.760;2023-06-10T03:56:17;98927.22;;;20.49;100.00
5753;BME280;2901;42.140;24.760;2023-06-10T03:58:43;98930.47;;;20.54;100.00
5753;BME280;2901;42.140;24.760;2023-06-10T04:01:08;98931.28;;;20.55;100.00
5753;BME280;2901;42.140;24.760;2023-06-10T04:03:34;98928.41;;;20.59;100.00
5753;BME280;2901;42.140;24.760;2023-06-10T04:05:59;98929.25;;;20.60;100.00
5753;BME280;2901;42.140;24.760;2023-06-10T04:08:25;98929.81;;;20.65;100.00
5753;BME280;2901;42.140;24.760;2023-06-10T04:10:50;98917.53;;;20.65;100.00
5753;BME280;2901;42.140;24.760;2023-06-10T04:13:16;98923.28;;;20.72;100.00
5753;BME280;2901;42.140;24.760;2023-06-10T04:15:41;98911.84;;;20.73;100.00
5753;BME280;2901;42.140;24.760;2023-06-10T04:18:06;98922.69;;;20.83;100.00
5753;BME280;2901;42.140;24.760;2023-06-10T04:20:32;98925.13;;;20.86;100.00
5753;BME280;2901;42.140;24.760;2023-06-10T04:22:57;98912.41;;;20.94;99.97
5753;BME280;2901;42.140;24.760;2023-06-10T04:25:24;98908.63;;;20.98;99.20
5753;BME280;2901;42.140;24.760;2023-06-10T04:27:51;98919.00;;;21.01;99.30
5753;BME280;2901;42.140;24.760;2023-06-10T04:30:16;98922.94;;;21.08;98.79
5753;BME280;2901;42.140;24.760;2023-06-10T04:32:43;98915.50;;;21.16;98.02
5753;BME280;2901;42.140;24.760;2023-06-10T04:35:11;98913.63;;;21.18;97.90
5753;BME280;2901;42.140;24.760;2023-06-10T04:37:37;98919.28;;;21.26;97.71
5753;BME280;2901;42.140;24.760;2023-06-10T04:40:02;98910.28;;;21.30;97.83
5753;BME280;2901;42.140;24.760;2023-06-10T04:42:28;98916.59;;;21.42;96.29
5753;BME280;2901;42.140;24.760;2023-06-10T04:44:53;98909.16;;;21.48;96.15
5753;BME280;2901;42.140;24.760;2023-06-10T04:47:19;98912.94;;;21.58;95.48
5753;BME280;2901;42.140;24.760;2023-06-10T04:49:45;98904.66;;;21.64;95.35
5753;BME280;2901;42.140;24.760;2023-06-10T04:52:10;98902.97;;;21.78;94.86
5753;BME280;2901;42.140;24.760;2023-06-10T04:54:36;98912.19;;;21.85;94.28
5753;BME280;2901;42.140;24.760;2023-06-10T04:57:01;98903.16;;;21.89;93.80
5753;BME280;2901;42.140;24.760;2023-06-10T04:59:27;98913.91;;;22.00;93.14
5753;BME280;2901;42.140;24.760;2023-06-10T05:01:52;98907.16;;;21.96;92.85
5753;BME280;2901;42.140;24.760;2023-06-10T05:04:17;98913.81;;;22.01;92.96
5753;BME280;2901;42.140;24.760;2023-06-10T05:06:43;98914.00;;;22.12;92.47
5753;BME280;2901;42.140;24.760;2023-06-10T05:09:09;98908.34;;;22.18;91.47
5753;BME280;2901;42.140;24.760;2023-06-10T05:11:35;98917.38;;;22.29;91.77
5753;BME280;2901;42.140;24.760;2023-06-10T05:14:00;98918.09;;;22.31;91.55
5753;BME280;2901;42.140;24.760;2023-06-10T05:16:25;98916.88;;;22.36;90.26
5753;BME280;2901;42.140;24.760;2023-06-10T05:18:51;98913.22;;;22.39;89.79
5753;BME280;2901;42.140;24.760;2023-06-10T05:21:17;98916.13;;;22.34;90.04
5753;BME280;2901;42.140;24.760;2023-06-10T05:23:42;98912.34;;;22.38;90.48
5753;BME280;2901;42.140;24.760;2023-06-10T05:26:08;98898.75;;;22.44;90.16
5753;BME280;2901;42.140;24.760;2023-06-10T05:28:33;98905.69;;;22.59;88.16
5753;BME280;2901;42.140;24.760;2023-06-10T05:30:58;98902.09;;;22.74;87.90
5753;BME280;2901;42.140;24.760;2023-06-10T05:33:24;98902.38;;;22.97;86.66
5753;BME280;2901;42.140;24.760;2023-06-10T05:35:49;98903.00;;;23.00;86.46
5753;BME280;2901;42.140;24.760;2023-06-10T05:38:15;98897.78;;;22.86;85.68
5753;BME280;2901;42.140;24.760;2023-06-10T05:40:40;98905.00;;;22.97;85.15
5753;BME280;2901;42.140;24.760;2023-06-10T05:43:06;98909.88;;;23.03;86.20
5753;BME280;2901;42.140;24.760;2023-06-10T05:45:31;98907.91;;;23.19;85.79
5753;BME280;2901;42.140;24.760;2023-06-10T05:47:56;98907.91;;;23.19;86.10
5753;BME280;2901;42.140;24.760;2023-06-10T05:50:24;98903.66;;;23.04;87.36
5753;BME280;2901;42.140;24.760;2023-06-10T05:52:49;98905.66;;;23.00;88.23
5753;BME280;2901;42.140;24.760;2023-06-10T05:55:15;98902.72;;;23.05;87.99
5753;BME280;2901;42.140;24.760;2023-06-10T05:57:41;98908.81;;;23.05;87.00
5753;BME280;2901;42.140;24.760;2023-06-10T06:00:07;98914.03;;;22.80;86.62
5753;BME280;2901;42.140;24.760;2023-06-10T06:02:33;98915.75;;;22.81;86.91
5753;BME280;2901;42.140;24.760;2023-06-10T06:04:58;98912.78;;;22.86;86.26
5753;BME280;2901;42.140;24.760;2023-06-10T06:07:23;98920.41;;;22.90;83.77
5753;BME280;2901;42.140;24.760;2023-06-10T06:09:49;98928.69;;;22.98;83.11
5753;BME280;2901;42.140;24.760;2023-06-10T06:12:14;98936.06;;;23.06;83.40
5753;BME280;2901;42.140;24.760;2023-06-10T06:14:39;98926.72;;;23.14;81.89
5753;BME280;2901;42.140;24.760;2023-06-10T06:17:06;98932.75;;;23.29;82.10
5753;BME280;2901;42.140;24.760;2023-06-10T06:19:31;98930.66;;;23.34;83.04
5753;BME280;2901;42.140;24.760;2023-06-10T06:21:56;98933.13;;;23.50;82.81
5753;BME280;2901;42.140;24.760;2023-06-10T06:24:22;98928.50;;;23.66;81.20
5753;BME280;2901;42.140;24.760;2023-06-10T06:26:47;98930.72;;;23.72;81.81
5753;BME280;2901;42.140;24.760;2023-06-10T06:29:12;98927.31;;;23.83;81.32
5753;BME280;2901;42.140;24.760;2023-06-10T06:31:38;98919.72;;;23.91;81.20
5753;BME280;2901;42.140;24.760;2023-06-10T06:34:03;98922.03;;;23.83;81.55
5753;BME280;2901;42.140;24.760;2023-06-10T06:36:29;98923.94;;;23.81;81.69
5753;BME280;2901;42.140;24.760;2023-06-10T06:38:54;98914.72;;;23.99;81.91
5753;BME280;2901;42.140;24.760;2023-06-10T06:41:19;98916.50;;;24.11;81.59
5753;BME280;2901;42.140;24.760;2023-06-10T06:43:47;98916.53;;;24.23;82.13
5753;BME280;2901;42.140;24.760;2023-06-10T06:46:12;98912.03;;;24.24;80.00
5753;BME280;2901;42.140;24.760;2023-06-10T06:48:38;98917.34;;;24.24;78.42
5753;BME280;2901;42.140;24.760;2023-06-10T06:51:03;98919.03;;;24.25;78.81
5753;BME280;2901;42.140;24.760;2023-06-10T06:53:28;98911.81;;;24.40;78.03
5753;BME280;2901;42.140;24.760;2023-06-10T06:55:54;98905.09;;;24.70;76.87
5753;BME280;2901;42.140;24.760;2023-06-10T06:58:19;98903.72;;;25.01;75.66
5753;BME280;2901;42.140;24.760;2023-06-10T07:00:45;98902.88;;;25.36;75.09
5753;BME280;2901;42.140;24.760;2023-06-10T07:03:10;98900.16;;;25.59;74.14
5753;BME280;2901;42.140;24.760;2023-06-10T07:05:36;98897.78;;;25.33;74.84
5753;BME280;2901;42.140;24.760;2023-06-10T07:08:01;98895.97;;;25.22;75.37
5753;BME280;2901;42.140;24.760;2023-06-10T07:10:28;98889.97;;;25.31;74.91
5753;BME280;2901;42.140;24.760;2023-06-10T07:12:53;98897.63;;;25.23;75.35
5753;BME280;2901;42.140;24.760;2023-06-10T07:15:19;98883.94;;;25.40;75.51
5753;BME280;2901;42.140;24.760;2023-06-10T07:17:44;98887.09;;;25.45;73.66
5753;BME280;2901;42.140;24.760;2023-06-10T07:20:10;98884.31;;;25.47;74.09
5753;BME280;2901;42.140;24.760;2023-06-10T07:22:36;98880.97;;;25.45;74.09
5753;BME280;2901;42.140;24.760;2023-06-10T07:25:01;98875.34;;;25.60;73.87
5753;BME280;2901;42.140;24.760;2023-06-10T07:27:27;98878.25;;;25.68;73.86
5753;BME280;2901;42.140;24.760;2023-06-10T07:29:52;98879.06;;;25.69;73.57
5753;BME280;2901;42.140;24.760;2023-06-10T07:32:19;98871.84;;;25.71;73.36
5753;BME280;2901;42.140;24.760;2023-06-10T07:34:45;98880.75;;;25.92;73.31
5753;BME280;2901;42.140;24.760;2023-06-10T07:37:11;98876.53;;;25.90;72.18
5753;BME280;2901;42.140;24.760;2023-06-10T07:39:36;98880.31;;;25.98;72.65
5753;BME280;2901;42.140;24.760;2023-06-10T07:42:02;98881.59;;;26.15;71.35
5753;BME280;2901;42.140;24.760;2023-06-10T07:44:27;98879.91;;;26.14;71.83
5753;BME280;2901;42.140;24.760;2023-06-10T07:46:53;98874.59;;;26.14;71.61
5753;BME280;2901;42.140;24.760;2023-06-10T07:49:18;98882.72;;;26.23;71.21
5753;BME280;2901;42.140;24.760;2023-06-10T07:51:43;98876.56;;;26.23;70.00
5753;BME280;2901;42.140;24.760;2023-06-10T07:54:09;98882.47;;;26.26;69.43
5753;BME280;2901;42.140;24.760;2023-06-10T07:56:35;98885.72;;;26.08;67.97
5753;BME280;2901;42.140;24.760;2023-06-10T07:59:00;98878.47;;;26.10;67.77
5753;BME280;2901;42.140;24.760;2023-06-10T08:01:26;98883.56;;;26.24;68.43
5753;BME280;2901;42.140;24.760;2023-06-10T08:03:51;98872.53;;;26.28;68.25
5753;BME280;2901;42.140;24.760;2023-06-10T08:06:17;98880.59;;;26.38;67.24
5753;BME280;2901;42.140;24.760;2023-06-10T08:08:43;98879.50;;;26.52;66.29
5753;BME280;2901;42.140;24.760;2023-06-10T08:11:10;98874.47;;;26.80;65.89
5753;BME280;2901;42.140;24.760;2023-06-10T08:13:36;98879.84;;;27.22;64.89
5753;BME280;2901;42.140;24.760;2023-06-10T08:16:01;98868.69;;;27.69;63.51
5753;BME280;2901;42.140;24.760;2023-06-10T08:18:27;98864.63;;;28.05;61.77
5753;BME280;2901;42.140;24.760;2023-06-10T08:20:52;98863.88;;;28.43;60.74
5753;BME280;2901;42.140;24.760;2023-06-10T08:23:17;98865.59;;;28.63;58.19
5753;BME280;2901;42.140;24.760;2023-06-10T08:25:44;98869.78;;;28.47;58.10
5753;BME280;2901;42.140;24.760;2023-06-10T08:28:10;98864.06;;;28.51;57.22
5753;BME280;2901;42.140;24.760;2023-06-10T08:30:35;98859.91;;;28.77;56.84
5753;BME280;2901;42.140;24.760;2023-06-10T08:33:00;98861.16;;;28.93;55.34
5753;BME280;2901;42.140;24.760;2023-06-10T08:35:26;98862.28;;;28.80;55.80
5753;BME280;2901;42.140;24.760;2023-06-10T08:37:51;98857.94;;;28.79;55.57
5753;BME280;2901;42.140;24.760;2023-06-10T08:40:17;98861.72;;;28.96;55.06
5753;BME280;2901;42.140;24.760;2023-06-10T08:43:01;98854.97;;;29.21;54.13
5753;BME280;2901;42.140;24.760;2023-06-10T08:45:30;98854.22;;;29.48;53.12
5753;BME280;2901;42.140;24.760;2023-06-10T08:48:02;98857.06;;;29.37;52.09
5753;BME280;2901;42.140;24.760;2023-06-10T08:50:34;98851.47;;;29.76;52.35
5753;BME280;2901;42.140;24.760;2023-06-10T08:53:00;98845.72;;;30.08;50.41
5753;BME280;2901;42.140;24.760;2023-06-10T08:55:38;98847.72;;;30.51;48.92
5753;BME280;2901;42.140;24.760;2023-06-10T08:58:07;98840.78;;;30.58;48.43
5753;BME280;2901;42.140;24.760;2023-06-10T09:00:33;98834.75;;;30.56;47.63
5753;BME280;2901;42.140;24.760;2023-06-10T09:03:00;98839.78;;;30.95;45.98
5753;BME280;2901;42.140;24.760;2023-06-10T09:05:28;98837.31;;;31.19;44.05
5753;BME280;2901;42.140;24.760;2023-06-10T09:07:57;98837.28;;;31.11;43.68
5753;BME280;2901;42.140;24.760;2023-06-10T09:10:23;98831.16;;;31.44;42.81
5753;BME280;2901;42.140;24.760;2023-06-10T09:12:48;98830.81;;;31.47;42.91
5753;BME280;2901;42.140;24.760;2023-06-10T09:15:14;98829.78;;;30.97;41.21
5753;BME280;2901;42.140;24.760;2023-06-10T09:17:40;98821.16;;;30.67;41.94
5753;BME280;2901;42.140;24.760;2023-06-10T09:20:07;98816.19;;;30.72;41.41
5753;BME280;2901;42.140;24.760;2023-06-10T09:22:33;98819.91;;;30.79;41.32
5753;BME280;2901;42.140;24.760;2023-06-10T09:25:16;98820.78;;;30.98;40.93
5753;BME280;2901;42.140;24.760;2023-06-10T09:27:52;98823.78;;;31.20;38.68
5753;BME280;2901;42.140;24.760;2023-06-10T09:30:27;98819.13;;;31.48;39.67
5753;BME280;2901;42.140;24.760;2023-06-10T09:32:56;98821.44;;;31.69;36.53
5753;BME280;2901;42.140;24.760;2023-06-10T09:35:23;98824.56;;;31.98;36.54
5753;BME280;2901;42.140;24.760;2023-06-10T09:37:53;98816.66;;;32.22;36.31
5753;BME280;2901;42.140;24.760;2023-06-10T09:40:19;98813.00;;;32.48;36.20
5753;BME280;2901;42.140;24.760;2023-06-10T09:42:44;98811.72;;;32.68;35.04
5753;BME280;2901;42.140;24.760;2023-06-10T09:45:10;98804.84;;;32.57;35.42
5753;BME280;2901;42.140;24.760;2023-06-10T09:47:35;98810.06;;;32.59;35.84
5753;BME280;2901;42.140;24.760;2023-06-10T09:50:01;98802.69;;;32.69;35.22
5753;BME280;2901;42.140;24.760;2023-06-10T09:52:28;98814.59;;;32.66;35.29
5753;BME280;2901;42.140;24.760;2023-06-10T09:54:59;98814.69;;;31.99;40.68
5753;BME280;2901;42.140;24.760;2023-06-10T09:57:25;98826.47;;;31.20;46.07
5753;BME280;2901;42.140;24.760;2023-06-10T09:59:54;98816.56;;;30.15;50.43
5753;BME280;2901;42.140;24.760;2023-06-10T10:02:20;98817.44;;;29.78;51.50
5753;BME280;2901;42.140;24.760;2023-06-10T10:04:46;98819.69;;;29.46;52.22
5753;BME280;2901;42.140;24.760;2023-06-10T10:07:12;98823.91;;;29.39;52.54
5753;BME280;2901;42.140;24.760;2023-06-10T10:09:39;98815.09;;;29.19;52.83
5753;BME280;2901;42.140;24.760;2023-06-10T10:12:09;98819.34;;;28.83;54.32
5753;BME280;2901;42.140;24.760;2023-06-10T10:14:36;98821.84;;;28.56;55.06
5753;BME280;2901;42.140;24.760;2023-06-10T10:17:14;98818.19;;;28.28;55.45
5753;BME280;2901;42.140;24.760;2023-06-10T10:19:46;98817.34;;;28.28;56.44
5753;BME280;2901;42.140;24.760;2023-06-10T10:22:40;98815.41;;;28.68;55.05
5753;BME280;2901;42.140;24.760;2023-06-10T10:25:10;98815.44;;;28.88;54.08
5753;BME280;2901;42.140;24.760;2023-06-10T10:30:09;98813.31;;;29.01;52.90
5753;BME280;2901;42.140;24.760;2023-06-10T10:32:51;98812.59;;;28.99;52.58
5753;BME280;2901;42.140;24.760;2023-06-10T10:35:21;98810.19;;;29.15;51.90
5753;BME280;2901;42.140;24.760;2023-06-10T10:37:48;98812.97;;;29.23;52.10
5753;BME280;2901;42.140;24.760;2023-06-10T10:40:14;98806.13;;;29.30;50.98
5753;BME280;2901;42.140;24.760;2023-06-10T10:42:40;98802.88;;;29.17;50.81
5753;BME280;2901;42.140;24.760;2023-06-10T10:45:07;98811.00;;;29.34;51.74
5753;BME280;2901;42.140;24.760;2023-06-10T10:47:34;98804.09;;;29.42;50.83
5753;BME280;2901;42.140;24.760;2023-06-10T10:50:01;98801.19;;;29.72;50.42
5753;BME280;2901;42.140;24.760;2023-06-10T10:52:28;98799.81;;;29.95;49.25
5753;BME280;2901;42.140;24.760;2023-06-10T10:55:12;98796.78;;;30.08;47.94
5753;BME280;2901;42.140;24.760;2023-06-10T10:57:38;98803.28;;;30.05;47.29
5753;BME280;2901;42.140;24.760;2023-06-10T11:00:05;98803.72;;;30.01;47.04
5753;BME280;2901;42.140;24.760;2023-06-10T11:02:41;98805.00;;;29.69;48.42
5753;BME280;2901;42.140;24.760;2023-06-10T11:05:16;98805.59;;;29.63;46.85
5753;BME280;2901;42.140;24.760;2023-06-10T11:07:52;98798.13;;;29.94;46.12
5753;BME280;2901;42.140;24.760;2023-06-10T11:10:30;98791.47;;;30.08;44.81
5753;BME280;2901;42.140;24.760;2023-06-10T11:12:56;98791.88;;;30.13;44.54
5753;BME280;2901;42.140;24.760;2023-06-10T11:15:24;98799.34;;;30.27;44.44
5753;BME280;2901;42.140;24.760;2023-06-10T11:23:32;98790.03;;;29.49;49.14
5753;BME280;2901;42.140;24.760;2023-06-10T11:28:36;98774.19;;;29.75;48.32
5753;BME280;2901;42.140;24.760;2023-06-10T11:31:01;98781.06;;;29.77;47.34
5753;BME280;2901;42.140;24.760;2023-06-10T11:33:27;98779.88;;;29.62;48.04
5753;BME280;2901;42.140;24.760;2023-06-10T11:35:53;98778.19;;;29.34;48.31
5753;BME280;2901;42.140;24.760;2023-06-10T11:38:19;98776.78;;;29.30;48.68
5753;BME280;2901;42.140;24.760;2023-06-10T11:40:53;98769.41;;;29.42;47.44
5753;BME280;2901;42.140;24.760;2023-06-10T11:43:19;98770.34;;;29.60;47.20
5753;BME280;2901;42.140;24.760;2023-06-10T11:45:45;98766.06;;;30.21;46.70
5753;BME280;2901;42.140;24.760;2023-06-10T11:48:12;98762.97;;;30.61;44.03
5753;BME280;2901;42.140;24.760;2023-06-10T11:50:37;98765.00;;;30.85;44.16
5753;BME280;2901;42.140;24.760;2023-06-10T11:53:03;98754.59;;;31.00;43.56
5753;BME280;2901;42.140;24.760;2023-06-10T11:55:42;98755.38;;;31.18;42.09
5753;BME280;2901;42.140;24.760;2023-06-10T11:58:15;98754.75;;;31.24;41.69
5753;BME280;2901;42.140;24.760;2023-06-10T12:00:51;98746.88;;;31.48;41.50
5753;BME280;2901;42.140;24.760;2023-06-10T12:03:19;98744.81;;;31.76;41.02
5753;BME280;2901;42.140;24.760;2023-06-10T12:06:20;98745.97;;;31.73;39.90
5753;BME280;2901;42.140;24.760;2023-06-10T12:08:45;98746.50;;;31.77;40.69
5753;BME280;2901;42.140;24.760;2023-06-10T12:11:11;98739.31;;;31.77;40.67
5753;BME280;2901;42.140;24.760;2023-06-10T12:13:36;98747.00;;;31.47;40.74
5753;BME280;2901;42.140;24.760;2023-06-10T12:16:08;98739.38;;;31.26;41.24
5753;BME280;2901;42.140;24.760;2023-06-10T12:18:34;98738.59;;;31.67;40.90
5753;BME280;2901;42.140;24.760;2023-06-10T12:21:00;98739.34;;;31.94;40.30
5753;BME280;2901;42.140;24.760;2023-06-10T12:23:25;98738.31;;;31.86;42.40
5753;BME280;2901;42.140;24.760;2023-06-10T12:25:52;98743.88;;;32.01;42.91
5753;BME280;2901;42.140;24.760;2023-06-10T12:28:22;98727.94;;;31.92;42.36
5753;BME280;2901;42.140;24.760;2023-06-10T12:30:48;98728.94;;;31.82;42.53
5753;BME280;2901;42.140;24.760;2023-06-10T12:33:17;98728.94;;;31.74;43.08
5753;BME280;2901;42.140;24.760;2023-06-10T12:35:52;98729.13;;;31.47;44.07
5753;BME280;2901;42.140;24.760;2023-06-10T12:38:24;98726.38;;;31.39;44.23
5753;BME280;2901;42.140;24.760;2023-06-10T12:40:52;98730.50;;;31.25;44.25
5753;BME280;2901;42.140;24.760;2023-06-10T12:43:22;98726.41;;;31.05;44.24
5753;BME280;2901;42.140;24.760;2023-06-10T12:45:49;98726.53;;;31.04;43.77
5753;BME280;2901;42.140;24.760;2023-06-10T12:48:18;98725.75;;;30.85;44.16
5753;BME280;2901;42.140;24.760;2023-06-10T12:50:46;98718.38;;;30.87;43.49
5753;BME280;2901;42.140;24.760;2023-06-10T12:53:12;98717.56;;;31.13;42.57
5753;BME280;2901;42.140;24.760;2023-06-10T12:55:37;98712.06;;;31.48;41.69
5753;BME280;2901;42.140;24.760;2023-06-10T12:58:04;98700.28;;;31.67;42.17
5753;BME280;2901;42.140;24.760;2023-06-10T13:00:29;98705.00;;;31.89;41.49
5753;BME280;2901;42.140;24.760;2023-06-10T13:02:59;98703.69;;;31.93;40.30
5753;BME280;2901;42.140;24.760;2023-06-10T13:05:26;98701.91;;;32.10;41.50
5753;BME280;2901;42.140;24.760;2023-06-10T13:07:51;98699.25;;;32.26;40.54
5753;BME280;2901;42.140;24.760;2023-06-10T13:10:17;98687.84;;;32.16;40.47
5753;BME280;2901;42.140;24.760;2023-06-10T13:12:43;98700.34;;;31.91;40.60
5753;BME280;2901;42.140;24.760;2023-06-10T13:15:09;98695.59;;;31.69;41.09
5753;BME280;2901;42.140;24.760;2023-06-10T13:17:34;98701.13;;;31.75;40.59